Time;durP1;ratioP1;P1;durP2;ratioP2;P2;SDS_P1;SDS_P2;PMS_P1;PMS_P2;Temp;Humidity;BMP_temperature;BMP_pressure;BME280_temperature;BME280_humidity;BME280_pressure;Samples;Min_cycle;Max_cycle;Signal;HPM_P1;HPM_P2
2021/11/09 00:02:03;;;;;;;14.55;9.35;;;;;;;7.03;79.39;100853.50;1706494;83;21256;-58
2021/11/09 00:05:12;;;;;;;13.95;8.75;;;;;;;7.02;79.48;100858.59;1706593;84;21644;-59
2021/11/09 00:08:20;;;;;;;15.58;9.33;;;;;;;6.99;79.54;100861.57;1706525;83;21252;-59
2021/11/09 00:11:26;;;;;;;17.37;8.85;;;;;;;6.97;79.61;100854.08;1707163;84;21701;-59
2021/11/09 00:14:32;;;;;;;14.65;8.78;;;;;;;6.97;79.62;100858.64;1707128;84;21335;-59
2021/11/09 00:17:38;;;;;;;15.28;9.03;;;;;;;6.94;79.68;100846.20;1706951;83;21197;-58
2021/11/09 00:20:47;;;;;;;15.68;8.95;;;;;;;6.93;79.77;100853.98;1706926;84;21220;-58
2021/11/09 00:23:52;;;;;;;14.05;8.65;;;;;;;6.93;79.84;100858.06;1706904;83;21235;-58
2021/11/09 00:26:59;;;;;;;15.50;9.40;;;;;;;6.94;79.84;100857.08;1706654;83;21283;-59
2021/11/09 00:30:04;;;;;;;15.90;8.93;;;;;;;6.93;79.80;100870.31;1706957;84;21203;-60
2021/11/09 00:33:11;;;;;;;15.35;8.45;;;;;;;6.95;79.75;100878.33;1706758;83;21248;-58
2021/11/09 00:36:17;;;;;;;16.82;9.00;;;;;;;6.94;79.75;100872.05;1706754;84;21248;-58
2021/11/09 00:39:23;;;;;;;18.52;9.55;;;;;;;6.94;79.67;100866.61;1706847;84;21208;-59
2021/11/09 00:42:30;;;;;;;14.70;9.28;;;;;;;6.96;79.58;100872.74;1706681;83;21392;-63
2021/11/09 00:45:35;;;;;;;16.17;9.50;;;;;;;6.98;79.57;100875.33;1706775;84;21268;-58
2021/11/09 00:48:42;;;;;;;15.25;8.28;;;;;;;6.99;79.54;100873.82;1706902;83;21269;-57
2021/11/09 00:51:50;;;;;;;15.72;8.65;;;;;;;7.02;79.45;100874.93;1706789;84;21219;-58
2021/11/09 00:54:58;;;;;;;13.00;8.55;;;;;;;7.05;79.39;100872.41;1706797;84;21192;-59
2021/11/09 00:58:06;;;;;;;15.83;8.60;;;;;;;7.07;79.34;100869.05;1706829;83;21216;-57
2021/11/09 01:01:12;;;;;;;14.28;8.70;;;;;;;7.09;79.24;100866.53;1706863;84;21239;-58
2021/11/09 01:04:18;;;;;;;17.00;9.23;;;;;;;7.10;79.16;100870.13;1685078;84;21180;-59
2021/11/09 01:07:24;;;;;;;13.20;8.55;;;;;;;7.13;79.11;100874.80;1706780;83;21216;-59
2021/11/09 01:10:29;;;;;;;15.72;9.33;;;;;;;7.16;79.04;100881.31;1685143;84;21220;-58
2021/11/09 01:13:35;;;;;;;15.95;8.80;;;;;;;7.18;78.91;100878.45;1706815;83;21212;-58
2021/11/09 01:16:42;;;;;;;14.10;8.38;;;;;;;7.20;78.79;100870.48;1706814;84;21228;-58
2021/11/09 01:19:48;;;;;;;10.98;8.18;;;;;;;7.21;78.72;100866.78;1706416;83;21220;-58
2021/11/09 01:22:55;;;;;;;14.40;8.80;;;;;;;7.25;78.61;100875.00;1706817;83;21328;-58
2021/11/09 01:26:01;;;;;;;13.18;8.20;;;;;;;7.27;78.53;100877.09;1706797;84;21197;-58
2021/11/09 01:29:08;;;;;;;14.80;8.15;;;;;;;7.30;78.44;100888.19;1706770;83;21220;-58
2021/11/09 01:32:16;;;;;;;13.95;8.53;;;;;;;7.32;78.37;100890.28;1706714;83;21219;-57
2021/11/09 01:35:21;;;;;;;15.32;8.70;;;;;;;7.32;78.32;100885.70;1706725;84;21244;-57
2021/11/09 01:38:26;;;;;;;14.18;8.43;;;;;;;7.35;78.28;100880.45;1706959;83;21239;-57
2021/11/09 01:41:32;;;;;;;15.35;7.97;;;;;;;7.36;78.24;100888.48;1706729;84;21272;-57
2021/11/09 01:44:37;;;;;;;13.40;8.50;;;;;;;7.38;78.15;100881.53;1706479;84;21256;-58
2021/11/09 01:47:42;;;;;;;11.83;7.92;;;;;;;7.39;78.10;100888.19;1706894;83;21264;-58
2021/11/09 01:50:56;;;;;;;13.85;8.38;;;;;;;7.40;77.99;100889.90;1706699;84;21252;-58
2021/11/09 01:54:02;;;;;;;14.00;7.90;;;;;;;7.41;77.94;100898.45;1707037;83;21634;-58
2021/11/09 01:57:08;;;;;;;13.05;7.92;;;;;;;7.43;77.98;100895.09;1706894;83;21256;-59
2021/11/09 02:00:18;;;;;;;14.13;8.00;;;;;;;7.45;77.89;100897.67;1706883;84;21263;-59
2021/11/09 02:03:25;;;;;;;12.20;7.55;;;;;;;7.48;77.82;100896.85;1706797;83;21235;-58
2021/11/09 02:06:32;;;;;;;15.70;8.00;;;;;;;7.50;77.75;100901.66;1706719;84;21275;-59
2021/11/09 02:09:38;;;;;;;13.48;7.78;;;;;;;7.51;77.70;100899.31;1685367;84;21383;-58
2021/11/09 02:12:45;;;;;;;9.88;6.97;;;;;;;7.53;77.72;100897.28;1706848;83;21240;-58
2021/11/09 02:15:54;;;;;;;14.58;8.25;;;;;;;7.53;77.71;100891.84;1706659;84;21259;-58
2021/11/09 02:19:00;;;;;;;11.22;7.60;;;;;;;7.56;77.71;100897.00;1706716;83;21217;-58
2021/11/09 02:22:09;;;;;;;12.73;8.18;;;;;;;7.57;77.72;100899.23;1711018;83;21362;-59
2021/11/09 02:25:18;;;;;;;12.23;7.85;;;;;;;7.59;77.65;100900.79;1715056;83;21354;-58
2021/11/09 02:28:23;;;;;;;14.78;7.65;;;;;;;7.58;77.59;100900.94;1714814;83;21373;-58
2021/11/09 02:31:30;;;;;;;11.48;7.28;;;;;;;7.59;77.60;100893.98;1715024;83;21318;-59
2021/11/09 02:34:35;;;;;;;11.80;7.55;;;;;;;7.59;77.55;100902.16;1715029;83;21393;-58
2021/11/09 02:37:41;;;;;;;11.25;6.75;;;;;;;7.59;77.53;100899.42;1715052;83;21231;-58
2021/11/09 02:40:48;;;;;;;10.80;7.37;;;;;;;7.60;77.47;100898.94;1715009;83;21366;-58
2021/11/09 02:43:57;;;;;;;14.93;7.20;;;;;;;7.60;77.43;100898.44;1715009;83;21287;-58
2021/11/09 02:47:06;;;;;;;12.37;7.28;;;;;;;7.63;77.42;100906.33;1715034;83;21192;-57
2021/11/09 02:50:12;;;;;;;13.38;7.75;;;;;;;7.64;77.33;100903.95;1714977;83;21418;-57
2021/11/09 02:53:39;;;;;;;13.68;7.40;;;;;;;7.66;77.24;100908.41;1681462;83;21895;-57
2021/11/09 02:56:50;;;;;;;13.03;7.65;;;;;;;7.67;77.17;100908.27;1715145;83;21327;-59
2021/11/09 03:00:44;;;;;;;11.40;6.87;;;;;;;7.69;77.11;100915.77;1715208;83;21378;-58
2021/11/09 03:03:11;;;;;;;11.35;7.12;;;;;;;7.70;77.05;100915.28;1706726;83;21208;-57
2021/11/09 03:06:28;;;;;;;11.55;7.20;;;;;;;7.70;76.91;100920.73;1714991;83;21355;-58
2021/11/09 03:12:44;;;;;;;12.35;8.25;;;;;;;7.70;76.79;100922.96;1715134;83;21208;-59
2021/11/09 03:15:50;;;;;;;10.00;6.83;;;;;;;7.71;76.73;100921.95;1715045;83;21362;-58
2021/11/09 03:19:10;;;;;;;11.00;7.22;;;;;;;7.71;76.67;100924.67;1714861;83;21750;-59
2021/11/09 03:45:53;;;;;;;13.98;6.92;;;;;;;7.70;76.68;100924.81;1707155;84;21212;-57
2021/11/09 03:49:00;;;;;;;13.78;7.65;;;;;;;7.69;76.62;100919.02;1707010;83;21213;-58
2021/11/09 03:52:11;;;;;;;10.23;7.40;;;;;;;7.69;76.65;100925.83;1707213;83;21670;-57
2021/11/09 03:55:29;;;;;;;11.97;7.72;;;;;;;7.68;76.64;100930.91;1707140;84;21872;-60
2021/11/09 03:58:38;;;;;;;13.60;7.58;;;;;;;7.68;76.61;100929.55;1706034;83;21220;-59
2021/11/09 04:05:08;;;;;;;10.58;7.58;;;;;;;7.68;76.66;100924.96;1706892;84;21244;-60
2021/11/09 04:11:33;;;;;;;13.65;7.53;;;;;;;7.71;76.67;100945.63;1706689;84;21314;-59
2021/11/09 04:14:41;;;;;;;12.50;7.15;;;;;;;7.70;76.65;100939.80;1706662;84;22006;-58
2021/11/09 05:10:33;;;;;;;13.75;8.05;;;;;;;7.41;78.18;101006.52;1597790;89;21840;-58
2021/11/09 05:13:40;;;;;;;12.25;9.03;;;;;;;7.42;78.27;101020.00;1668788;85;21798;-60
2021/11/09 05:16:46;;;;;;;16.42;11.10;;;;;;;7.42;78.32;101021.36;1668726;86;21266;-59
2021/11/09 05:19:52;;;;;;;12.07;9.43;;;;;;;7.45;78.39;101014.27;1669152;86;21222;-59
2021/11/09 05:22:58;;;;;;;11.25;7.75;;;;;;;7.48;78.41;101015.88;1668789;86;21223;-59
2021/11/09 05:26:03;;;;;;;12.53;7.25;;;;;;;7.50;78.29;101025.61;1667376;82;21283;-59
2021/11/09 05:29:08;;;;;;;13.00;7.33;;;;;;;7.51;78.19;101023.27;1665029;85;21227;-59
2021/11/09 05:32:14;;;;;;;11.05;6.75;;;;;;;7.53;78.01;101021.23;1664900;86;21242;-59
2021/11/09 05:35:22;;;;;;;8.75;6.22;;;;;;;7.55;77.87;101023.33;1665125;85;21257;-58
2021/11/09 05:38:44;;;;;;;14.47;7.03;;;;;;;7.58;77.64;101025.77;1671650;83;21207;-59
2021/11/09 05:41:39;;;;;;;9.93;5.92;;;;;;;7.61;77.46;101026.84;1631888;85;21330;-59
2021/11/09 05:44:46;;;;;;;12.00;5.97;;;;;;;7.65;77.10;101031.52;1668271;85;21253;-59
2021/11/09 05:47:53;;;;;;;8.68;5.30;;;;;;;7.66;76.86;101029.14;1668092;85;21250;-59
2021/11/09 05:50:59;;;;;;;9.08;5.80;;;;;;;7.68;76.23;101033.09;1667621;84;21242;-60
2021/11/09 05:54:05;;;;;;;57.80;29.65;;;;;;;7.62;76.08;101039.98;1675787;85;21442;-59
2021/11/09 05:57:11;;;;;;;18.05;10.25;;;;;;;7.63;75.84;101048.01;1673049;85;21231;-60
2021/11/09 06:00:17;;;;;;;36.88;23.40;;;;;;;7.67;75.64;101059.50;1662511;83;21215;-59
2021/11/09 06:03:23;;;;;;;18.10;9.68;;;;;;;7.73;75.54;101071.19;1677027;83;21653;-59
2021/11/09 06:06:29;;;;;;;16.48;10.10;;;;;;;7.77;75.08;101074.50;1669792;85;21208;-59
2021/11/09 06:09:35;;;;;;;21.20;12.07;;;;;;;7.79;74.99;101080.65;1673649;84;21951;-59
2021/11/09 06:12:43;;;;;;;26.42;14.38;;;;;;;7.82;74.84;101092.14;1648103;86;21216;-59
2021/11/09 06:15:54;;;;;;;32.08;16.32;;;;;;;7.86;74.41;101091.36;1662731;85;21855;-59
2021/11/09 06:18:59;;;;;;;13.88;8.10;;;;;;;7.84;73.81;101098.81;1617696;88;21821;-59
2021/11/09 06:22:07;;;;;;;18.32;10.70;;;;;;;7.84;73.51;101104.26;1651967;85;21223;-60
2021/11/09 06:25:15;;;;;;;20.08;9.75;;;;;;;7.79;73.18;101111.99;1649740;84;21287;-60
2021/11/09 06:28:21;;;;;;;14.05;9.23;;;;;;;7.70;73.25;101104.17;1659391;86;21600;-60
2021/11/09 06:31:29;;;;;;;18.98;13.28;;;;;;;7.63;73.38;101122.94;1659683;86;21202;-60
2021/11/09 06:34:38;;;;;;;8.08;5.90;;;;;;;7.56;73.55;101121.76;1651499;86;21235;-60
2021/11/09 06:37:45;;;;;;;8.85;6.17;;;;;;;7.52;73.85;101123.55;1659803;86;21232;-61
2021/11/09 06:40:54;;;;;;;7.08;5.00;;;;;;;7.44;74.17;101112.47;1664370;84;21760;-59
2021/11/09 06:43:59;;;;;;;7.42;5.28;;;;;;;7.34;74.27;101105.63;1684515;83;21256;-59
2021/11/09 06:47:06;;;;;;;8.63;5.58;;;;;;;7.22;74.33;101106.73;1681401;84;21352;-60
2021/11/09 06:50:17;;;;;;;7.85;5.42;;;;;;;7.06;74.56;101100.05;1660331;86;21227;-61
2021/11/09 06:53:27;;;;;;;7.22;5.05;;;;;;;6.97;74.86;101114.49;1660028;86;21878;-60
2021/11/09 06:56:32;;;;;;;6.58;4.45;;;;;;;6.92;74.99;101117.62;1650837;86;21350;-59
2021/11/09 06:59:37;;;;;;;6.40;4.37;;;;;;;6.89;75.07;101116.53;1660157;86;21233;-59
2021/11/09 07:02:46;;;;;;;11.10;4.50;;;;;;;6.89;75.19;101120.61;1650065;86;21434;-59
2021/11/09 07:05:52;;;;;;;5.90;4.10;;;;;;;6.90;74.95;101135.06;1659929;86;21247;-59
2021/11/09 07:08:57;;;;;;;5.33;4.20;;;;;;;6.89;75.04;101139.66;1668488;85;21236;-59
2021/11/09 07:12:03;;;;;;;5.95;3.85;;;;;;;6.86;74.70;101138.58;1687371;83;21732;-59
2021/11/09 07:15:09;;;;;;;5.67;4.58;;;;;;;6.72;74.52;101143.00;1687457;84;21506;-58
2021/11/09 07:18:16;;;;;;;7.55;4.62;;;;;;;6.64;74.63;101155.04;1670311;85;21223;-60
2021/11/09 07:21:21;;;;;;;4.90;3.60;;;;;;;6.60;74.67;101149.48;1663009;85;21239;-60
2021/11/09 07:24:30;;;;;;;6.12;4.00;;;;;;;6.56;74.81;101162.12;1673432;85;21341;-59
2021/11/09 07:27:35;;;;;;;5.40;3.75;;;;;;;6.53;74.89;101156.95;1674953;81;21870;-60
2021/11/09 07:30:46;;;;;;;10.68;3.75;;;;;;;6.46;74.93;101167.48;1678401;85;21196;-60
2021/11/09 07:33:53;;;;;;;4.97;4.03;;;;;;;6.40;74.50;101177.53;1679099;85;21926;-59
2021/11/09 07:37:00;;;;;;;5.47;4.08;;;;;;;6.29;74.65;101168.54;1678468;85;21880;-60
2021/11/09 07:40:11;;;;;;;4.50;3.08;;;;;;;6.25;74.94;101176.60;1673084;84;21260;-60
2021/11/09 07:43:15;;;;;;;5.42;3.55;;;;;;;6.27;74.83;101175.47;1672925;85;21757;-60
2021/11/09 07:46:20;;;;;;;4.33;2.90;;;;;;;6.25;73.83;101166.57;1677572;85;21227;-60
2021/11/09 07:49:28;;;;;;;4.67;2.58;;;;;;;6.21;73.28;101175.98;1673051;85;21392;-60
2021/11/09 07:52:37;;;;;;;5.25;3.30;;;;;;;6.15;73.03;101172.92;1666943;86;21254;-60
2021/11/09 07:56:07;;;;;;;25.17;13.85;;;;;;;6.11;72.83;101162.79;1667238;85;21373;-60
2021/11/09 07:59:13;;;;;;;29.00;18.32;;;;;;;6.13;71.91;101181.69;1648896;86;21637;-59
2021/11/09 08:02:15;;;;;;;35.30;23.10;;;;;;;6.10;71.03;101179.59;1654195;85;21277;-59
2021/11/09 08:05:16;;;;;;;6.70;3.42;;;;;;;6.10;70.03;101192.34;1650064;87;21345;-61
2021/11/09 08:08:32;;;;;;;4.83;2.80;;;;;;;6.05;69.17;101189.13;1650026;86;21226;-60
2021/11/09 08:11:39;;;;;;;3.17;2.30;;;;;;;6.04;69.18;101185.54;1672122;85;21217;-60
2021/11/09 08:14:44;;;;;;;3.00;1.60;;;;;;;6.09;68.79;101198.73;1677836;85;21326;-58
2021/11/09 08:17:52;;;;;;;3.60;2.00;;;;;;;6.06;68.24;101191.72;1674239;84;21909;-59
2021/11/09 08:20:57;;;;;;;3.02;2.10;;;;;;;6.14;68.25;101195.67;1650840;85;21264;-61
2021/11/09 08:24:02;;;;;;;3.20;1.98;;;;;;;6.22;68.02;101214.41;1665045;85;21359;-60
2021/11/09 08:27:11;;;;;;;5.05;3.33;;;;;;;6.27;68.10;101219.45;1677202;85;21601;-59
2021/11/09 08:30:16;;;;;;;11.63;3.60;;;;;;;6.34;68.12;101219.33;1666677;85;21199;-61
2021/11/09 08:33:25;;;;;;;6.78;3.27;;;;;;;6.41;68.36;101220.03;1679905;84;21246;-59
2021/11/09 08:36:31;;;;;;;7.05;4.03;;;;;;;6.46;68.11;101215.56;1679613;85;21215;-60
2021/11/09 08:39:41;;;;;;;5.05;3.42;;;;;;;6.47;67.65;101231.75;1675117;85;21331;-60
2021/11/09 08:42:53;;;;;;;6.90;2.80;;;;;;;6.50;67.44;101226.05;1674980;85;21434;-60
2021/11/09 08:46:05;;;;;;;10.18;4.42;;;;;;;6.52;66.94;101226.79;1671433;85;21434;-59
2021/11/09 08:49:13;;;;;;;2.33;1.80;;;;;;;6.51;66.45;101232.36;1677662;85;21413;-59
2021/11/09 08:52:20;;;;;;;3.15;1.80;;;;;;;6.49;66.08;101241.13;1687277;84;21349;-61
2021/11/09 09:05:36;;;;;;;4.28;2.80;;;;;;;6.69;64.93;101239.82;1674240;83;22213;-60
2021/11/09 09:08:42;;;;;;;3.27;2.50;;;;;;;6.75;64.82;101250.20;1674848;83;21805;-59
2021/11/09 09:11:49;;;;;;;2.98;2.05;;;;;;;6.81;64.58;101257.84;1679275;85;21203;-59
2021/11/09 09:14:54;;;;;;;4.25;2.35;;;;;;;6.87;64.48;101238.27;1679399;85;21244;-59
2021/11/09 09:17:59;;;;;;;3.92;2.15;;;;;;;6.91;64.11;101245.67;1679130;84;21252;-60
2021/11/09 09:21:14;;;;;;;3.67;3.12;;;;;;;6.92;63.83;101259.15;1656211;85;21751;-59
2021/11/09 09:27:49;;;;;;;5.85;4.80;;;;;;;6.85;63.76;101262.02;1669842;83;21323;-63
2021/11/09 09:57:26;;;;;;;2.95;1.57;;;;;;;6.93;60.34;101259.50;1653375;86;21221;-61
2021/11/09 10:00:33;;;;;;;4.25;2.27;;;;;;;7.04;59.91;101268.97;1671151;85;21230;-60
2021/11/09 10:03:45;;;;;;;2.60;1.92;;;;;;;7.06;59.67;101265.62;1675990;85;21298;-59
2021/11/09 10:06:52;;;;;;;5.97;2.00;;;;;;;7.07;59.47;101280.95;1674888;85;21271;-59
2021/11/09 10:09:58;;;;;;;9.08;3.75;;;;;;;7.01;57.86;101263.80;1653065;85;21417;-60
2021/11/09 10:13:23;;;;;;;4.72;2.30;;;;;;;6.99;57.38;101267.14;1656658;84;21252;-63
2021/11/09 10:16:34;;;;;;;3.08;2.02;;;;;;;7.02;56.80;101270.11;1643439;87;21780;-59
2021/11/09 10:19:40;;;;;;;3.33;2.58;;;;;;;7.09;56.06;101273.53;1643739;87;21591;-58
2021/11/09 10:22:49;;;;;;;3.17;2.20;;;;;;;7.17;56.85;101260.12;1643714;86;21225;-60
2021/11/09 10:26:01;;;;;;;2.15;1.62;;;;;;;7.32;57.40;101279.23;1647338;85;21188;-60
2021/11/09 10:29:14;;;;;;;3.47;2.05;;;;;;;7.42;56.12;101271.12;1665209;85;21801;-59
2021/11/09 10:32:25;;;;;;;5.33;2.40;;;;;;;7.49;55.16;101273.66;1658092;85;21216;-60
2021/11/09 10:35:31;;;;;;;3.08;2.12;;;;;;;7.52;54.57;101275.62;1675562;85;21211;-59
2021/11/09 10:38:39;;;;;;;3.60;2.17;;;;;;;7.52;54.86;101267.44;1685066;83;21224;-58
2021/11/09 10:41:49;;;;;;;2.52;1.70;;;;;;;7.58;55.30;101281.88;1703075;83;21334;-59
2021/11/09 10:45:09;;;;;;;2.42;1.90;;;;;;;7.55;54.57;101283.52;1703580;83;21374;-60
2021/11/09 10:48:21;;;;;;;3.20;1.98;;;;;;;7.53;54.93;101287.39;1693113;83;21410;-60
2021/11/09 10:51:27;;;;;;;2.67;1.83;;;;;;;7.56;55.34;101293.93;1647126;87;21240;-59
2021/11/09 10:58:22;;;;;;;2.37;1.92;;;;;;;7.72;54.46;101288.86;1647261;87;21296;-59
2021/11/09 11:04:38;;;;;;;4.78;1.47;;;;;;;7.84;53.47;101285.03;1672683;85;21236;-58
2021/11/09 11:08:04;;;;;;;9.55;5.03;;;;;;;7.95;53.70;101282.70;1679196;85;21339;-59
2021/11/09 11:11:25;;;;;;;;;;;;;;;7.96;51.99;101314.44;1676271;85;21398;-58
2021/11/09 11:14:35;;;;;;;11.45;6.83;;;;;;;7.97;50.86;101322.97;1669518;85;20226;-58
2021/11/09 11:17:47;;;;;;;9.55;4.92;;;;;;;7.84;50.71;101320.47;1671976;83;21323;-59
2021/11/09 11:20:55;;;;;;;5.37;3.72;;;;;;;7.69;51.46;101314.14;1672831;85;21272;-59
2021/11/09 11:24:01;;;;;;;8.33;5.60;;;;;;;7.53;51.94;101311.38;1674985;85;21434;-58
2021/11/09 11:27:07;;;;;;;3.25;2.45;;;;;;;7.42;52.36;101326.96;1672763;85;21332;-58
2021/11/09 11:30:14;;;;;;;8.65;2.87;;;;;;;7.31;52.94;101345.57;1674296;85;21235;-57
2021/11/09 11:33:24;;;;;;;6.72;3.67;;;;;;;7.16;52.62;101344.17;1671794;85;21378;-57
2021/11/09 11:36:32;;;;;;;3.37;1.65;;;;;;;7.04;52.87;101381.11;1674812;83;21390;-58
2021/11/09 11:39:40;;;;;;;2.30;1.67;;;;;;;6.85;52.82;101351.82;1652222;87;21314;-58
2021/11/09 11:42:48;;;;;;;4.40;2.50;;;;;;;6.78;53.00;101357.91;1675240;83;21320;-59
2021/11/09 11:45:54;;;;;;;12.43;5.58;;;;;;;6.72;52.82;101357.08;1704595;84;21279;-58
2021/11/09 11:49:12;;;;;;;23.47;10.75;;;;;;;6.60;52.67;101391.59;1689977;83;21317;-58
2021/11/09 11:52:33;;;;;;;19.70;10.53;;;;;;;6.55;52.66;101376.13;1686543;84;21206;-59
2021/11/09 11:55:40;;;;;;;8.00;4.78;;;;;;;6.54;52.94;101375.78;1675536;85;21226;-57
2021/11/09 11:58:50;;;;;;;8.53;6.10;;;;;;;6.50;53.04;101374.28;1651235;86;21369;-58
2021/11/09 12:02:16;;;;;;;13.30;8.78;;;;;;;6.52;53.30;101379.11;1675416;83;21311;-58
2021/11/09 12:05:21;;;;;;;15.30;8.67;;;;;;;6.53;53.74;101376.78;1682677;83;21252;-58
2021/11/09 12:08:51;;;;;;;26.30;13.98;;;;;;;6.50;54.18;101391.12;1669417;84;21302;-59
2021/11/09 12:11:58;;;;;;;12.55;5.55;;;;;;;6.38;54.62;101398.41;1665969;83;21204;-59
2021/11/09 12:15:13;;;;;;;28.05;13.32;;;;;;;6.27;54.50;101412.50;1669443;83;21197;-59
2021/11/09 12:18:44;;;;;;;20.48;9.15;;;;;;;6.12;54.40;101409.14;1669943;83;21228;-60
2021/11/09 12:21:50;;;;;;;12.37;5.78;;;;;;;5.99;54.54;101418.77;1667832;83;21231;-59
2021/11/09 12:25:04;;;;;;;9.95;4.90;;;;;;;5.94;54.83;101417.42;1669328;85;21219;-60
2021/11/09 12:28:17;;;;;;;11.00;4.83;;;;;;;5.90;55.31;101420.88;1678240;85;21613;-62
2021/11/09 12:31:23;;;;;;;10.07;4.73;;;;;;;5.88;55.70;101432.86;1668846;85;21210;-58
2021/11/09 12:34:57;;;;;;;13.75;6.67;;;;;;;5.84;55.95;101432.70;1674174;85;21454;-60
2021/11/09 12:38:13;;;;;;;10.58;5.17;;;;;;;5.80;56.29;101428.48;1669248;85;21878;-58
2021/11/09 12:41:27;;;;;;;11.80;5.30;;;;;;;5.78;56.18;101442.19;1668005;85;21218;-58
2021/11/09 12:44:42;;;;;;;2.77;2.10;;;;;;;5.71;56.39;101436.84;1672821;85;21292;-58
2021/11/09 12:47:55;;;;;;;7.05;3.70;;;;;;;5.65;56.71;101444.59;1671486;85;21297;-59
2021/11/09 12:51:13;;;;;;;9.95;3.95;;;;;;;5.56;57.29;101448.03;1671893;85;21253;-58
2021/11/09 12:54:23;;;;;;;12.15;4.83;;;;;;;5.53;57.63;101466.80;1668795;85;21745;-58
2021/11/09 12:57:30;;;;;;;8.80;4.10;;;;;;;5.52;57.36;101470.48;1670608;84;21242;-58
2021/11/09 13:00:42;;;;;;;11.28;2.80;;;;;;;5.48;57.10;101462.20;1653423;85;21271;-58
2021/11/09 13:04:17;;;;;;;8.15;2.90;;;;;;;5.45;57.33;101485.53;1671373;83;21611;-60
2021/11/09 13:07:35;;;;;;;9.58;3.98;;;;;;;5.41;57.17;101480.42;1661769;84;21287;-60
2021/11/09 13:10:40;;;;;;;9.33;3.67;;;;;;;5.40;57.60;101482.77;1659769;85;21629;-59
2021/11/09 13:13:47;;;;;;;9.50;6.22;;;;;;;5.40;57.13;101498.58;1665860;85;22075;-59
2021/11/09 13:16:57;;;;;;;10.35;6.22;;;;;;;5.35;56.91;101497.18;1660717;84;21654;-58
2021/11/09 13:20:20;;;;;;;18.23;8.95;;;;;;;5.32;57.04;101504.20;1660180;85;21630;-59
2021/11/09 13:23:28;;;;;;;7.30;4.83;;;;;;;5.30;57.37;101496.66;1654903;85;21309;-58
2021/11/09 13:26:34;;;;;;;10.20;4.90;;;;;;;5.30;57.44;101502.08;1659927;85;21208;-61
2021/11/09 13:29:52;;;;;;;10.63;5.70;;;;;;;5.25;57.30;101507.02;1658856;83;21587;-58
2021/11/09 13:33:01;;;;;;;11.08;4.50;;;;;;;5.21;57.60;101506.38;1640636;84;21239;-60
2021/11/09 13:36:09;;;;;;;25.85;7.83;;;;;;;5.19;58.00;101507.45;1667194;83;21218;-59
2021/11/09 13:39:16;;;;;;;26.87;9.93;;;;;;;5.21;58.27;101512.28;1668638;86;21819;-59
2021/11/09 13:42:30;;;;;;;42.60;14.83;;;;;;;5.23;58.38;101523.90;1668862;86;21517;-58
2021/11/09 13:45:33;;;;;;;14.40;7.00;;;;;;;5.21;58.63;101526.73;1668526;86;21210;-59
2021/11/09 13:48:48;;;;;;;10.18;4.12;;;;;;;5.17;58.65;101540.13;1669664;85;21283;-59
2021/11/09 13:51:59;;;;;;;6.05;3.62;;;;;;;5.09;58.64;101543.90;1677353;84;21219;-58
2021/11/09 13:55:04;;;;;;;6.78;3.80;;;;;;;4.99;59.01;101542.86;1670714;84;21648;-59
2021/11/09 13:58:11;;;;;;;8.35;4.03;;;;;;;4.96;59.32;101549.00;1667441;83;21357;-57
2021/11/09 14:01:20;;;;;;;4.72;2.50;;;;;;;4.91;59.45;101559.31;1688430;83;21362;-58
2021/11/09 14:07:59;;;;;;;9.38;4.08;;;;;;;4.84;59.64;101567.02;1705078;83;21832;-57
2021/11/09 14:14:40;;;;;;;8.50;2.75;;;;;;;4.77;60.28;101583.38;1687344;84;21934;-59
2021/11/09 14:17:39;;;;;;;4.45;2.42;;;;;;;4.70;60.83;101592.03;1696836;84;21258;-58
2021/11/09 14:21:01;;;;;;;4.62;2.65;;;;;;;4.63;61.37;101582.62;1673517;84;21271;-59
2021/11/09 14:24:28;;;;;;;3.17;1.90;;;;;;;4.59;61.78;101602.30;1649436;87;21212;-59
2021/11/09 14:27:38;;;;;;;4.70;1.98;;;;;;;4.51;61.62;101609.63;1650406;87;21287;-59
2021/11/09 14:30:45;;;;;;;4.85;2.50;;;;;;;4.43;61.47;101616.06;1650219;87;21223;-59
2021/11/09 14:33:51;;;;;;;4.42;2.33;;;;;;;4.37;61.53;101612.44;1652265;82;21259;-58
2021/11/09 14:36:59;;;;;;;4.40;2.87;;;;;;;4.39;61.58;101617.23;1668952;85;21207;-58
2021/11/09 14:40:16;;;;;;;6.60;3.00;;;;;;;4.37;61.42;101612.91;1659116;85;21208;-58
2021/11/09 14:43:40;;;;;;;4.95;2.67;;;;;;;4.35;61.34;101617.09;1659176;85;21207;-59
2021/11/09 14:46:45;;;;;;;6.67;3.02;;;;;;;4.35;61.17;101624.34;1669864;85;21219;-59
2021/11/09 14:49:57;;;;;;;7.87;4.08;;;;;;;4.32;61.29;101628.14;1670174;85;21261;-58
2021/11/09 14:53:22;;;;;;;22.52;5.87;;;;;;;4.31;61.49;101658.06;1663488;85;21241;-59
2021/11/09 14:56:37;;;;;;;15.05;9.03;;;;;;;4.27;61.75;101638.91;1651870;85;21240;-58
2021/11/09 14:59:42;;;;;;;17.75;6.30;;;;;;;4.25;61.82;101657.98;1671122;85;21232;-58
2021/11/09 15:02:49;;;;;;;10.70;5.03;;;;;;;4.24;61.82;101652.19;1648897;83;21196;-58
2021/11/09 15:06:05;;;;;;;14.15;5.42;;;;;;;4.26;61.74;101653.44;1651654;86;21320;-57
2021/11/09 15:29:37;;;;;;;7.62;3.55;;;;;;;4.27;60.82;101691.75;1668530;85;21205;-60
2021/11/09 15:32:36;;;;;;;8.18;4.12;;;;;;;4.27;60.76;101695.34;1667070;85;21232;-59
2021/11/09 15:36:30;;;;;;;8.43;4.30;;;;;;;4.26;60.83;101700.39;1674043;81;21943;-60
2021/11/09 15:38:57;;;;;;;9.85;5.60;;;;;;;4.29;60.81;101702.89;1671640;84;21795;-60
2021/11/09 15:42:03;;;;;;;6.92;3.15;;;;;;;4.31;60.64;101716.34;1669694;86;21266;-59
2021/11/09 15:45:08;;;;;;;8.33;4.25;;;;;;;4.29;60.24;101704.25;1670198;86;21230;-59
2021/11/09 15:48:14;;;;;;;8.58;3.75;;;;;;;4.27;60.12;101718.38;1674000;83;21348;-60
2021/11/09 15:51:23;;;;;;;7.72;3.45;;;;;;;4.27;60.03;101734.64;1651055;87;21211;-59
2021/11/09 15:54:28;;;;;;;9.53;4.10;;;;;;;4.24;59.83;101732.62;1663364;83;21850;-59
2021/11/09 16:01:26;;;;;;;6.37;3.00;;;;;;;4.20;59.78;101741.44;1668986;84;21226;-60
2021/11/09 16:04:36;;;;;;;6.75;2.15;;;;;;;4.14;59.94;101749.09;1671064;83;21635;-58
2021/11/09 16:07:38;;;;;;;7.67;2.52;;;;;;;4.09;59.93;101746.70;1672869;85;21283;-60
2021/11/09 16:10:51;;;;;;;5.78;2.17;;;;;;;4.05;60.01;101761.91;1676637;83;21308;-59
2021/11/09 16:13:59;;;;;;;6.45;2.22;;;;;;;4.00;59.92;101760.86;1677883;84;21242;-59
2021/11/09 16:17:06;;;;;;;6.45;2.40;;;;;;;3.95;60.03;101761.64;1679327;84;21216;-59
2021/11/09 16:20:14;;;;;;;5.67;2.35;;;;;;;3.91;60.19;101775.49;1679218;85;21220;-59
2021/11/09 16:23:20;;;;;;;7.40;2.52;;;;;;;3.85;60.32;101782.19;1671333;85;21618;-59
2021/11/09 16:26:26;;;;;;;5.10;2.27;;;;;;;3.83;60.50;101796.78;1670797;83;21747;-58
2021/11/09 16:29:58;;;;;;;6.53;2.37;;;;;;;3.79;60.62;101789.33;1676415;85;21245;-59
2021/11/09 16:33:16;;;;;;;4.78;2.20;;;;;;;3.77;60.78;101787.23;1669511;86;21242;-58
2021/11/09 16:36:20;;;;;;;4.60;1.82;;;;;;;3.77;61.10;101788.59;1671291;82;21207;-58
2021/11/09 16:39:37;;;;;;;5.87;2.65;;;;;;;3.77;61.31;101799.42;1675748;85;21226;-58
2021/11/09 16:42:42;;;;;;;9.55;3.55;;;;;;;3.77;61.39;101796.70;1678090;85;21337;-59
2021/11/09 16:52:27;;;;;;;9.05;3.35;;;;;;;3.75;61.78;101805.41;1671385;85;21261;-60
2021/11/09 17:05:36;;;;;;;8.05;3.52;;;;;;;3.81;62.20;101817.20;1677377;85;21771;-60
2021/11/09 18:01:35;;;;;;;7.10;2.83;;;;;;;3.69;63.12;101865.38;1676463;85;21221;-60
2021/11/09 18:22:16;;;;;;;7.45;3.55;;;;;;;3.68;63.95;101925.90;1653344;86;21361;-63
2021/11/09 18:25:24;;;;;;;5.00;3.40;;;;;;;3.65;63.58;101929.27;1658119;86;21418;-60
2021/11/09 18:28:31;;;;;;;5.80;3.58;;;;;;;3.65;63.74;101924.73;1658337;86;21377;-59
2021/11/09 18:31:37;;;;;;;11.90;3.62;;;;;;;3.65;63.88;101923.38;1658158;86;21358;-61
2021/11/09 18:34:47;;;;;;;4.67;2.98;;;;;;;3.62;64.06;101943.88;1658409;86;21220;-60
2021/11/09 18:38:02;;;;;;;4.22;2.15;;;;;;;3.64;64.14;101943.31;1632076;86;21227;-61
2021/11/09 18:41:10;;;;;;;4.10;2.50;;;;;;;3.63;64.13;101947.47;1658299;86;21844;-60
2021/11/09 18:44:16;;;;;;;4.55;2.40;;;;;;;3.60;64.21;101950.37;1657606;86;21863;-60
2021/11/09 18:47:22;;;;;;;3.42;2.30;;;;;;;3.60;64.37;101962.55;1658541;86;21433;-61
2021/11/09 18:50:33;;;;;;;3.70;2.30;;;;;;;3.60;64.33;101964.76;1658117;86;21847;-60
2021/11/09 18:53:39;;;;;;;2.70;2.10;;;;;;;3.59;64.20;101971.14;1658448;86;21247;-60
2021/11/09 18:56:51;;;;;;;2.98;2.20;;;;;;;3.59;64.11;101979.27;1658387;86;21204;-61